Montrose, Pennsylvania
Current Conditions -  °F | °C
As of 1:53 PM on Thursday 23 Oct 2014 (Local Time) from KBGM Reporting Station
Overcast Overcast  
Wind Chill: 39°   Ceiling: 1500
Heat Index: 47°   Visibility: 10mi
Dew Point: 41°   Wind: 21mph
Humidity: 80%   Direction: 340°NNW
Pressure: 29.87"   Gusts: NA
Location:  41.83°N, 75.88°W
Report Text: KBGM 231753Z 34018KT 10SM OVC015 08/05 A2987 RMK AO2 SLP122 T00830050 10083 20056 58007
Loading
Personal Weather Stations






























Interactive Weather Map
Tropical Storm Tracking
New forecast layout! Learn more

10-Day Weather Forecast

Advertisements
Track Severe Weather on mobile